Time;durP1;ratioP1;P1;durP2;ratioP2;P2;SDS_P1;SDS_P2;PMS_P1;PMS_P2;Temp;Humidity;BMP_temperature;BMP_pressure;BME280_temperature;BME280_humidity;BME280_pressure;Samples;Min_cycle;Max_cycle;Signal;HPM_P1;HPM_P2
2024/03/02 00:00:16;;;;;;;2.40;0.93;;;9.20;99.90;;;;;;5033134;28;20029;-55
2024/03/02 00:02:45;;;;;;;2.08;1.00;;;9.20;99.90;;;;;;5040870;28;20067;-54
2024/03/02 00:05:12;;;;;;;1.85;0.95;;;9.30;99.90;;;;;;5034134;28;20387;-39
2024/03/02 00:07:41;;;;;;;4.18;0.98;;;9.30;99.90;;;;;;5033035;28;20024;-53
2024/03/02 00:10:12;;;;;;;1.42;1.13;;;9.30;99.90;;;;;;5033000;28;20039;-57
2024/03/02 00:12:41;;;;;;;0.40;0.40;;;9.30;99.90;;;;;;5033061;28;20394;-51
2024/03/02 00:15:36;;;;;;;3.97;1.52;;;9.30;99.90;;;;;;5032868;28;20063;-55
2024/03/02 00:18:04;;;;;;;0.55;0.52;;;9.20;99.90;;;;;;5032905;28;20041;-55
2024/03/02 00:20:29;;;;;;;0.43;0.43;;;9.20;99.90;;;;;;5047360;28;20362;-54
2024/03/02 00:23:07;;;;;;;0.52;0.20;;;9.10;99.90;;;;;;5052785;28;20025;-54
2024/03/02 00:25:40;;;;;;;0.52;0.20;;;9.00;99.90;;;;;;5051453;28;20031;-54
2024/03/02 00:28:10;;;;;;;0.20;0.10;;;8.80;99.90;;;;;;5052147;28;20041;-54
2024/03/02 00:31:07;;;;;;;1.20;0.10;;;8.70;99.90;;;;;;5052813;28;20554;-55
2024/03/02 00:33:51;;;;;;;0.20;0.20;;;8.60;99.90;;;;;;5052835;28;20033;-56
2024/03/02 00:36:24;;;;;;;0.10;0.10;;;8.50;99.90;;;;;;5051809;28;20072;-56
2024/03/02 00:38:52;;;;;;;0.80;0.20;;;8.40;99.90;;;;;;5052601;28;20029;-52
2024/03/02 00:41:29;;;;;;;0.00;0.00;;;8.30;99.90;;;;;;5052529;28;20025;-55
2024/03/02 00:44:05;;;;;;;0.00;0.00;;;8.20;99.90;;;;;;5052600;28;20548;-54
2024/03/02 00:46:42;;;;;;;0.20;0.08;;;8.10;99.90;;;;;;5052478;28;20037;-56
2024/03/02 00:49:24;;;;;;;0.10;0.10;;;8.10;99.90;;;;;;5053462;28;20029;-55
2024/03/02 00:51:52;;;;;;;0.32;0.15;;;8.00;99.90;;;;;;5056939;28;20470;-56
2024/03/02 00:54:26;;;;;;;0.28;0.10;;;8.00;99.90;;;;;;5055711;28;20359;-56
2024/03/02 00:56:55;;;;;;;0.28;0.22;;;8.00;99.90;;;;;;5056743;28;20526;-55
2024/03/02 00:59:22;;;;;;;0.10;0.10;;;7.90;99.90;;;;;;5056680;28;20029;-55
2024/03/02 01:01:51;;;;;;;0.03;0.03;;;7.90;99.90;;;;;;5048126;28;20454;-56
2024/03/02 01:04:17;;;;;;;0.25;0.10;;;7.80;99.90;;;;;;5036644;28;20453;-55
2024/03/02 01:06:43;;;;;;;0.45;0.30;;;7.80;99.90;;;;;;5036342;28;20065;-55
2024/03/02 01:09:09;;;;;;;0.47;0.17;;;7.80;99.90;;;;;;5036228;28;20026;-56
2024/03/02 01:11:35;;;;;;;0.20;0.20;;;7.80;99.90;;;;;;5036830;28;20033;-57
2024/03/02 01:14:01;;;;;;;1.13;1.02;;;7.80;99.90;;;;;;5036252;28;20382;-55
2024/03/02 01:16:26;;;;;;;0.10;0.10;;;7.80;99.90;;;;;;5036233;28;20490;-55
2024/03/02 01:18:52;;;;;;;0.10;0.10;;;7.80;99.90;;;;;;5036576;28;20030;-55
2024/03/02 01:21:18;;;;;;;0.05;0.05;;;7.80;99.90;;;;;;5036104;28;20064;-54
2024/03/02 01:23:43;;;;;;;0.35;0.32;;;7.90;99.90;;;;;;5036349;28;20116;-56
2024/03/02 01:26:09;;;;;;;0.38;0.30;;;7.80;99.90;;;;;;5035849;28;20033;-55
2024/03/02 01:28:35;;;;;;;0.68;0.20;;;7.80;99.90;;;;;;5036408;28;20395;-56
2024/03/02 01:31:01;;;;;;;0.77;0.20;;;7.80;99.90;;;;;;5036091;28;20017;-57
2024/03/02 01:33:27;;;;;;;0.28;0.20;;;7.80;99.90;;;;;;5036127;28;20017;-56
2024/03/02 01:35:53;;;;;;;0.47;0.28;;;7.80;99.90;;;;;;5036103;28;20362;-55
2024/03/02 01:38:19;;;;;;;0.22;0.20;;;7.80;99.90;;;;;;5035759;28;20033;-60
2024/03/02 01:40:44;;;;;;;0.20;0.20;;;7.80;99.90;;;;;;5035700;28;20494;-53
2024/03/02 01:43:10;;;;;;;2.22;0.10;;;7.80;99.90;;;;;;5035977;28;20041;-54
2024/03/02 01:45:37;;;;;;;0.43;0.30;;;7.80;99.90;;;;;;5051164;28;20090;-52
2024/03/02 01:48:06;;;;;;;0.77;0.28;;;7.70;99.90;;;;;;5055692;28;20029;-53
2024/03/02 01:50:33;;;;;;;0.32;0.32;;;7.80;99.90;;;;;;5055619;28;20116;-54
2024/03/02 01:53:00;;;;;;;0.60;0.30;;;7.70;99.90;;;;;;5055490;28;20033;-54
2024/03/02 01:55:26;;;;;;;0.88;0.20;;;7.70;99.90;;;;;;5055313;28;20043;-53
2024/03/02 01:57:54;;;;;;;0.20;0.20;;;7.70;99.90;;;;;;5055474;28;20473;-52
2024/03/02 02:00:25;;;;;;;0.30;0.30;;;7.70;99.90;;;;;;5054459;28;20531;-53
2024/03/02 02:02:51;;;;;;;0.40;0.40;;;7.70;99.90;;;;;;5036034;28;20475;-55
2024/03/02 02:05:17;;;;;;;0.20;0.20;;;7.70;99.90;;;;;;5033884;28;20034;-54
2024/03/02 02:07:43;;;;;;;1.52;0.25;;;7.70;99.90;;;;;;5034059;28;20390;-54
2024/03/02 02:10:09;;;;;;;0.30;0.30;;;7.70;99.90;;;;;;5034963;28;20033;-56
2024/03/02 02:12:36;;;;;;;0.22;0.22;;;7.70;99.90;;;;;;5035389;28;20052;-54
2024/03/02 02:15:03;;;;;;;0.10;0.10;;;7.60;99.90;;;;;;5035204;28;20037;-52
2024/03/02 02:17:28;;;;;;;0.70;0.35;;;7.70;99.90;;;;;;5035119;28;20486;-54
2024/03/02 02:19:54;;;;;;;0.30;0.20;;;7.60;99.90;;;;;;5035574;28;20091;-54
2024/03/02 02:22:19;;;;;;;0.28;0.17;;;7.70;99.90;;;;;;5035028;28;20061;-54
2024/03/02 02:24:45;;;;;;;0.20;0.20;;;7.70;99.90;;;;;;5034966;28;20029;-54
2024/03/02 02:27:14;;;;;;;0.17;0.17;;;7.60;99.90;;;;;;5034873;28;20037;-54
2024/03/02 02:29:40;;;;;;;0.25;0.25;;;7.60;99.90;;;;;;5033356;28;20119;-53
2024/03/02 02:32:05;;;;;;;0.65;0.28;;;7.60;99.90;;;;;;5034817;28;20021;-54
2024/03/02 02:34:31;;;;;;;0.55;0.50;;;7.60;99.90;;;;;;5034796;28;20052;-57
2024/03/02 02:36:57;;;;;;;0.20;0.20;;;7.60;99.90;;;;;;5052583;28;20025;-53
2024/03/02 02:39:23;;;;;;;5.32;0.20;;;7.60;99.90;;;;;;5054958;28;20029;-54
2024/03/02 02:41:48;;;;;;;0.30;0.20;;;7.50;99.90;;;;;;5054842;28;20070;-54
2024/03/02 02:44:14;;;;;;;0.40;0.28;;;7.60;99.90;;;;;;5054531;28;20048;-54
2024/03/02 02:46:43;;;;;;;0.35;0.30;;;7.50;99.90;;;;;;5053196;28;20040;-55
2024/03/02 02:49:08;;;;;;;0.75;0.20;;;7.60;99.90;;;;;;5054690;28;20477;-54
2024/03/02 02:51:34;;;;;;;0.47;0.20;;;7.60;99.90;;;;;;5054605;28;20139;-55
2024/03/02 02:54:00;;;;;;;0.20;0.20;;;7.60;99.90;;;;;;5053823;28;20099;-56
2024/03/02 02:56:26;;;;;;;0.20;0.20;;;7.50;99.90;;;;;;5054228;28;20036;-55
2024/03/02 02:58:51;;;;;;;1.45;0.30;;;7.50;99.90;;;;;;5054499;28;20028;-54
2024/03/02 03:01:17;;;;;;;0.60;0.55;;;7.50;99.90;;;;;;5050133;28;20100;-54
2024/03/02 03:03:44;;;;;;;0.25;0.25;;;7.50;99.90;;;;;;5034230;28;20481;-54
2024/03/02 03:06:10;;;;;;;0.40;0.20;;;7.50;99.90;;;;;;5034154;28;20039;-54
2024/03/02 03:08:36;;;;;;;0.20;0.20;;;7.50;99.90;;;;;;5034182;28;20028;-54
2024/03/02 03:11:01;;;;;;;1.08;0.38;;;7.50;99.90;;;;;;5033333;28;20468;-54
2024/03/02 03:13:27;;;;;;;0.50;0.40;;;7.50;99.90;;;;;;5033606;28;20478;-55
2024/03/02 03:15:53;;;;;;;1.85;0.52;;;7.60;99.90;;;;;;5034004;28;20437;-53
2024/03/02 03:18:18;;;;;;;1.50;0.50;;;7.50;99.90;;;;;;5033954;28;20033;-54
2024/03/02 03:20:44;;;;;;;0.28;0.28;;;7.50;99.90;;;;;;5033906;28;20036;-54
2024/03/02 03:23:14;;;;;;;0.55;0.28;;;7.50;99.90;;;;;;5033892;28;20367;-52
2024/03/02 03:25:41;;;;;;;0.30;0.28;;;7.50;99.90;;;;;;5033867;28;20434;-54
2024/03/02 03:28:07;;;;;;;1.75;0.30;;;7.50;99.90;;;;;;5035381;28;20505;-53
2024/03/02 03:30:32;;;;;;;0.38;0.22;;;7.50;99.90;;;;;;5048522;28;20033;-53
2024/03/02 03:32:58;;;;;;;0.22;0.20;;;7.50;99.90;;;;;;5053532;28;20437;-55
2024/03/02 03:35:23;;;;;;;0.35;0.30;;;7.40;99.90;;;;;;5053510;28;20032;-55
2024/03/02 03:37:49;;;;;;;0.95;0.30;;;7.50;99.90;;;;;;5053404;28;20484;-55
2024/03/02 03:40:15;;;;;;;0.20;0.20;;;7.50;99.90;;;;;;5053791;28;20436;-39
2024/03/02 03:42:41;;;;;;;0.13;0.10;;;7.60;99.90;;;;;;5052996;28;20025;-42
2024/03/02 03:45:07;;;;;;;0.38;0.28;;;7.60;99.90;;;;;;5033894;28;20132;-39
2024/03/02 03:47:33;;;;;;;0.45;0.15;;;7.60;99.90;;;;;;5033369;28;20056;-42
2024/03/02 03:49:58;;;;;;;0.95;0.30;;;7.60;99.90;;;;;;5033279;28;20455;-39
2024/03/02 03:52:24;;;;;;;4.55;0.30;;;7.60;99.90;;;;;;5033330;28;20025;-40
2024/03/02 03:54:50;;;;;;;0.10;0.10;;;7.60;99.90;;;;;;5033248;28;20419;-39
2024/03/02 03:57:16;;;;;;;2.08;0.50;;;7.60;99.90;;;;;;5033191;28;20034;-39
2024/03/02 03:59:42;;;;;;;0.10;0.10;;;7.60;99.90;;;;;;5033281;28;20041;-40
2024/03/02 04:02:08;;;;;;;4.72;0.17;;;7.60;99.90;;;;;;5044795;28;20478;-37
2024/03/02 04:04:35;;;;;;;0.93;0.38;;;7.60;99.90;;;;;;5052864;28;20021;-38
2024/03/02 04:07:00;;;;;;;0.30;0.20;;;7.60;99.90;;;;;;5052920;28;20025;-39
2024/03/02 04:09:26;;;;;;;0.20;0.20;;;7.70;99.90;;;;;;5052909;28;20493;-39
2024/03/02 04:11:52;;;;;;;0.20;0.20;;;7.70;99.90;;;;;;5052971;28;20025;-39
2024/03/02 04:14:17;;;;;;;0.40;0.20;;;7.70;99.90;;;;;;5053176;28;20021;-39
2024/03/02 04:16:43;;;;;;;1.23;0.43;;;7.70;99.90;;;;;;5052345;28;20505;-39
2024/03/02 04:19:09;;;;;;;0.20;0.20;;;7.70;99.90;;;;;;5052585;28;20025;-39
2024/03/02 04:21:34;;;;;;;1.98;0.40;;;7.70;99.90;;;;;;5052983;28;20103;-43
2024/03/02 04:24:00;;;;;;;0.43;0.13;;;7.80;99.90;;;;;;5051985;28;20082;-39
2024/03/02 04:26:26;;;;;;;1.17;0.30;;;7.80;99.90;;;;;;5052907;28;20025;-39
2024/03/02 04:28:55;;;;;;;0.52;0.20;;;7.80;99.90;;;;;;5051227;28;20072;-39
2024/03/02 04:31:21;;;;;;;1.80;0.20;;;7.70;99.90;;;;;;5032981;28;20470;-39
2024/03/02 04:33:46;;;;;;;0.28;0.20;;;7.70;99.90;;;;;;5033221;28;20029;-39
2024/03/02 04:36:12;;;;;;;1.00;0.30;;;7.60;99.90;;;;;;5032941;28;20081;-38
2024/03/02 04:38:38;;;;;;;0.30;0.10;;;7.60;99.90;;;;;;5032699;28;20033;-39
2024/03/02 04:41:08;;;;;;;1.08;0.38;;;7.50;99.90;;;;;;5031275;28;20029;-40
2024/03/02 04:43:34;;;;;;;0.10;0.10;;;7.50;99.90;;;;;;5032586;28;20030;-40
2024/03/02 04:46:00;;;;;;;1.25;0.30;;;7.40;99.90;;;;;;5032563;28;20051;-38
2024/03/02 04:48:26;;;;;;;0.30;0.30;;;7.40;99.90;;;;;;5032566;28;20430;-39
2024/03/02 04:50:52;;;;;;;5.28;1.55;;;7.30;99.90;;;;;;5033012;28;20510;-48
2024/03/02 04:53:18;;;;;;;0.20;0.20;;;7.30;99.90;;;;;;5032530;28;20033;-42
2024/03/02 04:58:09;;;;;;;0.20;0.20;;;7.20;99.90;;;;;;5032785;28;20127;-42
2024/03/02 05:00:35;;;;;;;0.90;0.30;;;7.20;99.90;;;;;;5032419;28;20061;-39
2024/03/02 05:03:01;;;;;;;0.47;0.32;;;7.20;99.90;;;;;;5050595;28;20037;-41
2024/03/02 05:05:27;;;;;;;0.30;0.30;;;7.10;99.90;;;;;;5033055;28;20564;-40
2024/03/02 05:07:53;;;;;;;1.25;0.20;;;7.10;99.90;;;;;;5033504;28;20033;-38
2024/03/02 05:10:19;;;;;;;2.40;0.22;;;7.00;99.90;;;;;;5052487;28;20393;-39
2024/03/02 05:15:12;;;;;;;1.17;0.40;;;7.10;99.90;;;;;;5052253;28;20025;-40
2024/03/02 05:17:38;;;;;;;0.43;0.40;;;7.00;99.90;;;;;;5052203;28;20036;-43
2024/03/02 05:20:05;;;;;;;1.48;0.45;;;6.90;99.90;;;;;;5050940;28;20820;-39
2024/03/02 05:22:31;;;;;;;0.25;0.25;;;7.00;99.90;;;;;;5052508;28;20037;-39
2024/03/02 05:24:59;;;;;;;0.50;0.30;;;7.00;99.90;;;;;;5051317;28;20036;-39
2024/03/02 05:27:24;;;;;;;1.15;0.32;;;6.90;99.90;;;;;;5051921;28;20025;-39
2024/03/02 05:29:50;;;;;;;0.30;0.30;;;6.80;99.90;;;;;;5051927;28;20056;-40
2024/03/02 05:32:15;;;;;;;0.40;0.22;;;6.80;99.90;;;;;;5051997;28;20159;-39
2024/03/02 05:34:42;;;;;;;3.83;0.50;;;6.80;99.90;;;;;;5052519;28;20052;-41
2024/03/02 05:37:08;;;;;;;0.98;0.22;;;6.80;99.90;;;;;;5055716;28;20437;-39
2024/03/02 05:39:34;;;;;;;1.95;0.30;;;6.90;99.90;;;;;;5055893;28;20124;-40
2024/03/02 05:41:59;;;;;;;5.93;1.25;;;6.90;99.90;;;;;;5054849;28;20041;-39
2024/03/02 05:44:25;;;;;;;0.75;0.40;;;6.90;99.90;;;;;;5055859;28;20478;-39
2024/03/02 05:46:50;;;;;;;0.30;0.30;;;6.80;99.90;;;;;;5055511;28;20040;-38
2024/03/02 05:49:16;;;;;;;1.52;0.60;;;6.80;99.90;;;;;;5055480;28;20449;-39
2024/03/02 05:51:42;;;;;;;0.30;0.25;;;6.80;99.90;;;;;;5055571;28;20049;-39
2024/03/02 05:54:07;;;;;;;1.30;0.38;;;6.80;99.90;;;;;;5055478;28;20044;-41
2024/03/02 05:56:33;;;;;;;0.88;0.40;;;6.90;99.90;;;;;;5055386;28;20025;-41
2024/03/02 05:59:14;;;;;;;3.70;0.68;;;6.90;99.90;;;;;;5053271;28;20049;-40
2024/03/02 06:01:44;;;;;;;0.20;0.10;;;7.00;99.90;;;;;;5055381;28;20040;-42
2024/03/02 06:04:11;;;;;;;0.30;0.10;;;7.00;99.90;;;;;;5046541;28;20030;-39
2024/03/02 06:06:37;;;;;;;0.30;0.22;;;7.10;99.90;;;;;;5035237;28;20029;-43
2024/03/02 06:09:13;;;;;;;1.02;0.30;;;7.10;99.90;;;;;;5035220;28;20022;-40
2024/03/02 06:11:40;;;;;;;0.30;0.15;;;7.20;99.90;;;;;;5035173;28;20036;-41
2024/03/02 06:14:07;;;;;;;0.10;0.10;;;7.30;99.90;;;;;;5035254;28;20026;-37
2024/03/02 06:16:33;;;;;;;1.00;0.30;;;7.30;99.90;;;;;;5041558;28;20029;-37
2024/03/02 06:18:59;;;;;;;0.45;0.28;;;7.40;99.90;;;;;;5054948;28;20037;-40
2024/03/02 06:21:25;;;;;;;0.90;0.43;;;7.40;99.90;;;;;;5054944;28;20029;-39
2024/03/02 06:23:51;;;;;;;0.63;0.47;;;7.40;99.90;;;;;;5053931;28;20489;-41
2024/03/02 06:26:18;;;;;;;4.15;0.60;;;7.30;99.90;;;;;;5054783;28;20079;-38
2024/03/02 06:28:44;;;;;;;2.63;0.60;;;7.30;99.90;;;;;;5054783;28;20095;-39
2024/03/02 06:31:10;;;;;;;0.90;0.50;;;7.30;99.90;;;;;;5055321;28;20108;-39
2024/03/02 06:33:35;;;;;;;4.47;0.30;;;7.30;99.90;;;;;;5053836;28;20465;-39
2024/03/02 06:36:02;;;;;;;2.08;0.32;;;7.30;99.90;;;;;;5054935;28;20029;-39
2024/03/02 06:38:27;;;;;;;0.30;0.30;;;7.30;99.90;;;;;;5054497;28;20040;-40
2024/03/02 06:40:53;;;;;;;1.25;0.20;;;7.30;99.90;;;;;;5053315;28;20029;-38
2024/03/02 06:43:23;;;;;;;4.15;0.80;;;7.30;99.90;;;;;;5054514;28;20029;-39
2024/03/02 06:45:52;;;;;;;0.73;0.13;;;7.30;99.90;;;;;;5054490;28;20342;-39
2024/03/02 06:48:20;;;;;;;0.13;0.10;;;7.30;99.90;;;;;;5053503;28;20371;-43
2024/03/02 06:50:47;;;;;;;0.20;0.20;;;7.30;99.90;;;;;;5053551;28;20032;-43
2024/03/02 06:53:13;;;;;;;4.22;0.30;;;7.20;99.90;;;;;;5053120;28;20481;-39
2024/03/02 06:55:39;;;;;;;2.53;0.40;;;7.20;99.90;;;;;;5054276;28;20025;-41
2024/03/02 06:58:04;;;;;;;4.13;0.43;;;7.20;99.90;;;;;;5052584;28;20173;-43
2024/03/02 07:00:30;;;;;;;2.15;0.43;;;7.30;99.90;;;;;;5054430;28;20029;-41
2024/03/02 07:02:56;;;;;;;2.03;0.15;;;7.20;99.90;;;;;;5054044;28;20126;-39
2024/03/02 07:05:21;;;;;;;0.50;0.25;;;7.30;99.90;;;;;;5035529;28;20045;-40
2024/03/02 07:07:47;;;;;;;4.10;0.50;;;7.40;99.90;;;;;;5042447;28;20433;-39
2024/03/02 07:10:13;;;;;;;3.03;0.60;;;7.40;99.90;;;;;;5054132;28;20024;-38
2024/03/02 07:12:38;;;;;;;2.53;0.22;;;7.50;99.90;;;;;;5053982;28;20033;-40
2024/03/02 07:17:31;;;;;;;0.63;0.30;;;7.60;99.90;;;;;;5053872;28;20076;-38
2024/03/02 07:19:57;;;;;;;0.30;0.25;;;7.60;99.90;;;;;;5053876;28;20394;-38
2024/03/02 07:22:24;;;;;;;1.27;0.50;;;7.70;99.90;;;;;;5053804;28;20085;-39
2024/03/02 07:24:50;;;;;;;2.67;0.47;;;7.60;99.90;;;;;;5052902;28;20029;-41
2024/03/02 07:27:16;;;;;;;1.50;0.22;;;7.60;99.90;;;;;;5053625;28;20025;-44
2024/03/02 07:29:43;;;;;;;4.53;0.52;;;7.60;99.90;;;;;;5053455;28;20591;-39
2024/03/02 07:32:09;;;;;;;5.00;0.85;;;7.70;99.90;;;;;;5053588;28;20029;-41
2024/03/02 07:34:35;;;;;;;0.05;0.05;;;7.80;99.90;;;;;;5053539;28;20036;-40
2024/03/02 07:37:01;;;;;;;0.40;0.40;;;7.80;99.90;;;;;;5053472;28;20036;-41
2024/03/02 07:39:27;;;;;;;4.57;0.43;;;7.70;99.90;;;;;;5053422;28;20412;-39
2024/03/02 07:41:53;;;;;;;0.45;0.40;;;7.70;99.90;;;;;;5052599;28;20032;-38
2024/03/02 07:44:19;;;;;;;0.77;0.32;;;7.70;99.90;;;;;;5053399;28;20044;-39
2024/03/02 07:46:51;;;;;;;0.60;0.38;;;7.70;99.90;;;;;;5053228;28;20079;-39
2024/03/02 07:49:18;;;;;;;3.65;0.20;;;7.70;99.90;;;;;;5053240;28;20481;-39
2024/03/02 07:51:44;;;;;;;1.20;0.38;;;7.70;99.90;;;;;;5052254;28;20032;-42
2024/03/02 07:54:10;;;;;;;0.47;0.25;;;7.60;99.90;;;;;;5053484;28;20462;-40
2024/03/02 07:56:36;;;;;;;0.88;0.10;;;7.60;99.90;;;;;;5053492;28;20036;-39
2024/03/02 07:59:03;;;;;;;2.42;0.60;;;7.60;99.90;;;;;;5052220;28;20025;-44
2024/03/02 08:01:30;;;;;;;0.45;0.28;;;7.60;99.90;;;;;;5052946;28;20036;-42
2024/03/02 08:03:58;;;;;;;2.55;0.50;;;7.60;99.90;;;;;;5046146;28;20037;-38
2024/03/02 08:06:27;;;;;;;;;;;7.60;99.90;;;;;;5033307;28;20030;-40
2024/03/02 08:08:56;;;;;;;1.52;0.25;;;7.60;99.90;;;;;;5032996;28;19948;-41
2024/03/02 08:11:22;;;;;;;3.10;0.73;;;7.80;99.90;;;;;;5032993;28;20030;-42
2024/03/02 08:13:48;;;;;;;2.03;0.52;;;7.90;99.90;;;;;;5032961;28;20597;-39
2024/03/02 08:16:19;;;;;;;2.95;0.52;;;7.90;99.90;;;;;;5045140;28;20123;-40
2024/03/02 08:18:46;;;;;;;8.20;1.77;;;8.10;99.90;;;;;;5052857;28;20025;-39
2024/03/02 08:21:12;;;;;;;6.47;2.58;;;8.20;99.90;;;;;;5052860;28;20037;-39
2024/03/02 08:23:38;;;;;;;0.75;0.52;;;8.20;99.90;;;;;;5052760;28;20029;-38
2024/03/02 08:26:04;;;;;;;0.68;0.40;;;8.30;99.90;;;;;;5051425;28;20029;-39
2024/03/02 08:28:30;;;;;;;0.17;0.17;;;8.30;99.90;;;;;;5052650;28;20021;-38
2024/03/02 08:30:56;;;;;;;2.72;0.88;;;8.40;99.90;;;;;;5052679;28;20363;-39
2024/03/02 08:33:22;;;;;;;0.95;0.65;;;8.40;99.90;;;;;;5050508;28;20112;-39
2024/03/02 08:35:48;;;;;;;2.63;0.35;;;8.40;99.90;;;;;;5052617;28;20059;-38
2024/03/02 08:38:13;;;;;;;0.60;0.50;;;8.50;99.90;;;;;;5052599;28;20021;-39
2024/03/02 08:40:39;;;;;;;1.95;0.28;;;8.60;99.90;;;;;;5052826;28;20056;-40
2024/03/02 08:43:05;;;;;;;1.60;0.55;;;8.70;99.90;;;;;;5052853;28;20074;-38
2024/03/02 08:45:30;;;;;;;0.60;0.60;;;8.70;99.90;;;;;;5052533;28;20033;-41
2024/03/02 08:47:56;;;;;;;1.52;0.40;;;8.80;99.90;;;;;;5052487;28;20036;-39
2024/03/02 08:50:22;;;;;;;3.38;0.28;;;8.90;99.90;;;;;;5051592;28;20021;-41
2024/03/02 08:52:47;;;;;;;0.75;0.22;;;9.00;99.90;;;;;;5051262;28;20107;-39
2024/03/02 08:55:13;;;;;;;0.50;0.35;;;9.00;99.90;;;;;;5051329;28;20036;-40
2024/03/02 08:57:41;;;;;;;2.45;0.47;;;9.00;99.90;;;;;;5052421;28;20025;-44
2024/03/02 09:00:07;;;;;;;;;;;9.00;99.90;;;;;;5053067;28;20090;-37
2024/03/02 09:02:33;;;;;;;8.30;0.88;;;9.00;99.90;;;;;;5052222;28;20339;-37
2024/03/02 09:04:58;;;;;;;7.93;0.77;;;9.10;99.90;;;;;;5036867;28;20117;-38
2024/03/02 09:07:24;;;;;;;2.13;0.40;;;9.20;99.90;;;;;;5045752;28;20388;-40
2024/03/02 09:09:50;;;;;;;1.60;0.60;;;9.30;99.90;;;;;;5052608;28;20031;-38
2024/03/02 09:12:15;;;;;;;1.48;0.50;;;9.30;99.90;;;;;;5056267;28;20442;-39
2024/03/02 09:14:41;;;;;;;2.92;0.55;;;9.40;99.90;;;;;;5056223;28;20072;-46
2024/03/02 09:17:08;;;;;;;5.63;0.65;;;9.40;99.90;;;;;;5056187;28;20032;-38
2024/03/02 09:19:33;;;;;;;5.07;0.75;;;9.50;99.90;;;;;;5056377;28;20173;-39
2024/03/02 09:21:59;;;;;;;3.38;0.47;;;9.50;99.90;;;;;;5054849;28;20024;-38
2024/03/02 09:24:25;;;;;;;3.20;1.10;;;9.50;99.90;;;;;;5055211;28;20082;-37
2024/03/02 09:26:50;;;;;;;2.72;0.95;;;9.60;99.90;;;;;;5055836;28;20040;-40
2024/03/02 09:29:16;;;;;;;6.15;1.77;;;9.70;99.90;;;;;;5055971;28;20523;-40
2024/03/02 09:31:43;;;;;;;1.85;0.55;;;9.60;99.90;;;;;;5055910;28;20025;-38
2024/03/02 09:34:08;;;;;;;3.25;0.68;;;9.60;99.90;;;;;;5056144;28;20489;-41
2024/03/02 09:36:34;;;;;;;3.00;0.65;;;9.70;99.90;;;;;;5055878;28;20024;-40
2024/03/02 09:39:00;;;;;;;2.53;0.93;;;9.90;99.90;;;;;;5055856;28;20182;-39
2024/03/02 09:41:26;;;;;;;0.82;0.55;;;10.00;99.90;;;;;;5054989;28;20028;-41
2024/03/02 09:43:51;;;;;;;0.93;0.40;;;10.00;99.90;;;;;;5055607;28;20036;-41
2024/03/02 09:46:17;;;;;;;6.60;0.70;;;10.00;99.90;;;;;;5055565;28;20029;-42
2024/03/02 09:48:46;;;;;;;5.30;0.50;;;10.10;99.90;;;;;;5055065;28;20511;-41
2024/03/02 09:51:14;;;;;;;2.95;1.42;;;10.20;99.90;;;;;;5035634;28;20025;-39
2024/03/02 09:53:39;;;;;;;6.60;1.30;;;10.20;99.90;;;;;;5035891;28;20053;-40
2024/03/02 09:56:05;;;;;;;2.50;0.85;;;10.30;99.90;;;;;;5035565;28;20034;-38
2024/03/02 09:58:31;;;;;;;0.65;0.40;;;10.30;99.90;;;;;;5035947;28;20383;-40
2024/03/02 10:00:57;;;;;;;3.00;0.60;;;10.40;99.90;;;;;;5035329;28;20040;-38
2024/03/02 10:03:29;;;;;;;6.13;0.70;;;10.40;99.90;;;;;;5037498;28;20030;-38
2024/03/02 10:05:54;;;;;;;0.55;0.50;;;10.50;99.90;;;;;;5054047;28;20033;-39
2024/03/02 10:08:20;;;;;;;1.55;0.40;;;10.50;99.90;;;;;;5055161;28;20028;-38
2024/03/02 10:10:46;;;;;;;1.88;0.40;;;10.60;99.90;;;;;;5053892;28;20029;-38
2024/03/02 10:13:13;;;;;;;1.83;0.70;;;10.70;99.90;;;;;;5055122;28;20025;-38
2024/03/02 10:15:40;;;;;;;4.37;0.47;;;10.80;99.90;;;;;;5039080;28;20021;-39
2024/03/02 10:18:13;;;;;;;1.30;0.38;;;10.90;99.90;;;;;;5035045;28;20033;-40
2024/03/02 10:20:40;;;;;;;1.38;0.52;;;10.90;99.90;;;;;;5037495;28;20037;-41
2024/03/02 10:23:13;;;;;;;3.22;0.80;;;10.80;99.90;;;;;;5052677;28;20086;-38
2024/03/02 10:25:40;;;;;;;5.28;1.48;;;10.90;99.90;;;;;;5054953;28;20029;-43
2024/03/02 10:28:06;;;;;;;1.13;0.40;;;10.90;99.90;;;;;;5053502;28;20506;-41
2024/03/02 10:30:33;;;;;;;1.75;0.47;;;11.00;99.90;;;;;;5054561;28;20135;-39
2024/03/02 10:32:59;;;;;;;5.68;2.08;;;11.00;99.90;;;;;;5053886;28;20025;-41
2024/03/02 10:35:26;;;;;;;5.72;0.57;;;11.10;99.90;;;;;;5054947;28;20478;-55
2024/03/02 10:37:55;;;;;;;4.70;0.93;;;11.10;99.90;;;;;;5036821;28;20037;-54
2024/03/02 10:40:22;;;;;;;2.35;0.57;;;11.30;99.90;;;;;;5034634;28;20091;-40
2024/03/02 10:42:49;;;;;;;5.97;0.80;;;11.30;99.90;;;;;;5034695;28;20022;-40
2024/03/02 10:45:16;;;;;;;3.97;0.40;;;11.30;99.90;;;;;;5034564;28;20052;-39
2024/03/02 10:47:44;;;;;;;1.08;0.38;;;11.40;99.90;;;;;;5035273;28;20409;-39
2024/03/02 10:50:10;;;;;;;3.13;0.30;;;11.40;99.90;;;;;;5033073;28;20029;-40
2024/03/02 10:52:36;;;;;;;1.55;0.57;;;11.50;99.90;;;;;;5044100;28;20151;-39
2024/03/02 10:55:05;;;;;;;4.03;0.38;;;11.70;99.90;;;;;;5054183;28;20021;-40
2024/03/02 10:57:41;;;;;;;4.25;0.63;;;11.70;99.90;;;;;;5047884;28;20496;-41
2024/03/02 11:00:14;;;;;;;2.20;0.50;;;11.70;99.90;;;;;;5041976;28;20489;-39
2024/03/02 11:02:46;;;;;;;1.90;0.98;;;11.70;99.90;;;;;;5034404;28;20033;-39
2024/03/02 11:05:15;;;;;;;2.47;0.98;;;11.80;99.90;;;;;;5036069;28;20033;-42
2024/03/02 11:07:41;;;;;;;3.28;0.47;;;11.80;99.90;;;;;;5033974;28;20402;-44
2024/03/02 11:10:08;;;;;;;5.03;1.10;;;11.90;99.90;;;;;;5054083;28;20029;-44
2024/03/02 11:12:52;;;;;;;0.80;0.50;;;11.90;99.90;;;;;;5053997;28;20039;-39
2024/03/02 11:15:21;;;;;;;1.95;0.50;;;12.00;99.90;;;;;;5053840;28;20025;-40
2024/03/02 11:17:48;;;;;;;3.92;0.40;;;12.00;99.90;;;;;;5053869;28;20032;-39
2024/03/02 11:20:15;;;;;;;7.50;0.50;;;12.00;99.90;;;;;;5054175;28;20470;-41
2024/03/02 11:22:41;;;;;;;1.67;0.57;;;12.10;99.90;;;;;;5052985;28;20033;-40
2024/03/02 11:25:27;;;;;;;2.72;0.68;;;12.20;99.90;;;;;;5053981;28;20454;-39
2024/03/02 11:27:56;;;;;;;3.10;0.60;;;12.20;99.90;;;;;;5053654;28;20037;-39
2024/03/02 11:30:33;;;;;;;3.70;0.75;;;12.20;99.90;;;;;;5053374;28;20408;-42
2024/03/02 11:33:09;;;;;;;5.30;2.08;;;12.20;99.90;;;;;;5053304;28;20029;-39
2024/03/02 11:35:35;;;;;;;2.10;0.55;;;12.30;99.90;;;;;;5053548;28;20056;-40
2024/03/02 11:38:03;;;;;;;3.85;0.98;;;12.30;99.90;;;;;;5053470;28;20041;-39
2024/03/02 11:40:29;;;;;;;5.78;1.67;;;12.30;99.90;;;;;;5049037;28;20033;-39
2024/03/02 11:42:55;;;;;;;5.82;1.38;;;12.40;99.90;;;;;;5052700;28;20025;-40
2024/03/02 11:45:28;;;;;;;1.73;0.68;;;12.30;99.90;;;;;;5053406;28;20059;-40
2024/03/02 11:47:55;;;;;;;6.55;1.52;;;12.40;99.90;;;;;;5053526;28;20037;-39
2024/03/02 11:50:37;;;;;;;1.27;0.80;;;12.50;99.90;;;;;;5053346;28;20025;-39
2024/03/02 11:53:08;;;;;;;1.65;0.93;;;12.60;99.90;;;;;;5042871;28;20017;-40
2024/03/02 11:55:36;;;;;;;3.75;1.45;;;12.60;99.90;;;;;;5032377;28;20053;-39
2024/03/02 11:58:05;;;;;;;4.15;0.70;;;12.60;99.90;;;;;;5033779;28;20029;-37
2024/03/02 12:00:31;;;;;;;1.25;0.40;;;12.70;99.90;;;;;;5049915;28;20465;-38
2024/03/02 12:03:08;;;;;;;2.63;0.82;;;12.80;99.90;;;;;;5051699;28;20116;-39
2024/03/02 12:05:35;;;;;;;5.28;0.88;;;12.60;99.90;;;;;;5053334;28;20544;-41
2024/03/02 12:08:06;;;;;;;3.30;0.52;;;12.40;99.90;;;;;;5052867;28;20116;-39
2024/03/02 12:10:32;;;;;;;4.25;1.13;;;12.50;99.90;;;;;;5053146;28;20052;-39
2024/03/02 12:13:03;;;;;;;0.60;0.40;;;12.50;99.90;;;;;;5050824;28;20478;-40
2024/03/02 12:15:30;;;;;;;5.43;2.15;;;12.80;99.90;;;;;;5033235;28;20077;-43
2024/03/02 12:17:57;;;;;;;4.32;0.50;;;13.00;99.90;;;;;;5031482;28;20053;-39
2024/03/02 12:20:25;;;;;;;0.60;0.40;;;13.10;99.90;;;;;;5032902;28;20075;-38
2024/03/02 12:22:54;;;;;;;0.25;0.25;;;13.00;99.90;;;;;;5033180;28;20032;-40
2024/03/02 12:25:21;;;;;;;2.03;0.68;;;13.10;99.90;;;;;;5032744;28;20021;-43
2024/03/02 12:27:49;;;;;;;0.88;0.65;;;13.20;99.90;;;;;;5032826;28;20474;-39
2024/03/02 12:30:16;;;;;;;1.17;0.30;;;13.20;99.90;;;;;;5033014;28;20048;-39
2024/03/02 12:32:42;;;;;;;1.55;1.27;;;13.20;99.90;;;;;;5032897;28;20490;-39
2024/03/02 12:35:11;;;;;;;3.40;0.50;;;13.20;99.90;;;;;;5031284;28;20017;-39
2024/03/02 12:37:46;;;;;;;6.32;0.43;;;13.30;99.90;;;;;;5031373;28;20026;-38
2024/03/02 12:40:13;;;;;;;7.07;0.50;;;13.30;99.90;;;;;;5032913;28;20466;-44
2024/03/02 12:42:39;;;;;;;1.20;0.25;;;13.30;99.90;;;;;;5031456;28;20030;-42
2024/03/02 12:45:06;;;;;;;2.08;0.47;;;13.40;99.90;;;;;;5032142;28;20444;-40
2024/03/02 12:47:33;;;;;;;0.90;0.32;;;13.40;99.90;;;;;;5033321;28;20017;-39
2024/03/02 12:49:59;;;;;;;3.00;0.32;;;13.60;99.90;;;;;;5032502;28;20079;-38
2024/03/02 12:52:25;;;;;;;2.60;0.73;;;13.70;99.90;;;;;;5041166;28;20484;-39
2024/03/02 12:54:52;;;;;;;2.38;0.60;;;13.70;99.90;;;;;;5052704;28;20028;-43
2024/03/02 12:57:18;;;;;;;3.13;0.55;;;13.70;99.90;;;;;;5052730;28;20457;-39
2024/03/02 12:59:47;;;;;;;2.67;0.73;;;13.90;99.90;;;;;;5052390;28;20028;-44
2024/03/02 13:02:19;;;;;;;3.05;0.65;;;14.00;99.90;;;;;;5052299;28;20025;-54